This is the latest recevied weather packets stored in our database for station/object OE3CJB-13. If no packets are shown the sender has not sent any weather packets the latest 10 day(s).
| Time | Temp. | Humidity | Pressure | Rain* | Wind** | Luminosity | Snow |
|---|---|---|---|---|---|---|---|
| 1777614325 | 5.56° C | 37% | 746.8 hPa | 0 mm | - | - | - |
| 1777612549 | 3.89° C | 45% | 745.2 hPa | 0 mm | - | - | - |
| 1777611688 | 3.33° C | 48% | 742.8 hPa | 0 mm | - | - | - |
| 1777610725 | 2.22° C | 50% | 742.8 hPa | 0 mm | - | - | - |
| 1777609865 | 1.67° C | 50% | 742.7 hPa | 0 mm | - | - | - |
| 1777608949 | 1.67° C | 49% | 742.6 hPa | 0 mm | - | - | - |
| 1777608040 | 1.67° C | 48% | 744.1 hPa | 0 mm | - | - | - |
| 1777607125 | 1.67° C | 47% | 744.9 hPa | 0 mm | - | - | - |
| 1777606269 | 1.67° C | 46% | 744.9 hPa | 0 mm | - | - | - |
| 1777605350 | 1.67° C | 45% | 745.7 hPa | 0 mm | - | - | - |
| 1777604440 | 1.67° C | 44% | 747.4 hPa | 0 mm | - | - | - |
| 1777603525 | 2.22° C | 43% | 746.6 hPa | 0 mm | - | - | - |
| 1777602846 | 2.22° C | 43% | 747.4 hPa | 0 mm | - | - | - |
| 1777601749 | 2.22° C | 43% | 749.8 hPa | 0 mm | - | - | - |
| 1777600839 | 2.22° C | 44% | 749 hPa | 0 mm | - | - | - |
| 1777599925 | 2.22° C | 43% | 750.5 hPa | 0 mm | - | - | - |
| 1777599109 | 2.78° C | 43% | 750.5 hPa | 0 mm | - | - | - |
| 1777598149 | 2.78° C | 43% | 752.9 hPa | 0 mm | - | - | - |
| 1777597287 | 2.78° C | 42% | 753.6 hPa | 0 mm | - | - | - |
| 1777596325 | 2.78° C | 41% | 753.6 hPa | 0 mm | - | - | - |
| 1777595465 | 3.33° C | 41% | 755.2 hPa | 0 mm | - | - | - |
| 1777594549 | 3.33° C | 40% | 755.9 hPa | 0 mm | - | - | - |
| 1777593639 | 3.33° C | 40% | 757.5 hPa | 0 mm | - | - | - |
| 1777592725 | 3.33° C | 39% | 759.8 hPa | 0 mm | - | - | - |
| 1777591865 | 3.33° C | 38% | 760.6 hPa | 0 mm | - | - | - |
* Rain latest hour (hover to see other rain measurements)
** Current wind speed in m/s (hover to see current wind gust speed)